Time;durP1;ratioP1;P1;durP2;ratioP2;P2;SDS_P1;SDS_P2;PMS_P1;PMS_P2;Temp;Humidity;BMP_temperature;BMP_pressure;BME280_temperature;BME280_humidity;BME280_pressure;Samples;Min_cycle;Max_cycle;Signal;HPM_P1;HPM_P2
2023/01/17 00:00:10;;;;;;;45.38;28.05;;;6.70;99.90;;;;;;4996499;28;20072;-74
2023/01/17 00:02:37;;;;;;;52.72;30.65;;;6.60;99.90;;;;;;5011684;28;20049;-73
2023/01/17 00:10:59;;;;;;;43.78;24.50;;;6.40;99.90;;;;;;5027948;28;20061;-73
2023/01/17 00:13:27;;;;;;;44.47;26.30;;;6.60;99.90;;;;;;5011303;28;20623;-74
2023/01/17 00:15:54;;;;;;;39.45;24.80;;;6.60;99.90;;;;;;5008567;28;20046;-73
2023/01/17 00:18:25;;;;;;;45.00;26.38;;;6.60;99.90;;;;;;4995127;28;20132;-74
2023/01/17 01:35:53;;;;;;;42.35;24.63;;;6.60;99.90;;;;;;5018915;28;20504;-72
2023/01/17 01:38:25;;;;;;;35.40;22.90;;;6.60;99.90;;;;;;5030375;28;20134;-73
2023/01/17 01:40:55;;;;;;;35.45;23.02;;;6.70;99.90;;;;;;5024510;28;20048;-74
2023/01/17 01:43:46;;;;;;;34.53;22.98;;;6.80;99.90;;;;;;5032818;28;20076;-73
2023/01/17 01:46:23;;;;;;;35.30;22.73;;;6.60;99.90;;;;;;5043533;28;20049;-74
2023/01/17 01:49:01;;;;;;;34.03;21.75;;;6.50;99.90;;;;;;5022662;28;20053;-72
2023/01/17 01:51:54;;;;;;;37.83;22.33;;;6.60;99.90;;;;;;5020548;28;20080;-73
2023/01/17 01:54:30;;;;;;;36.08;23.52;;;6.70;99.90;;;;;;5027355;23;20108;-74
2023/01/17 01:57:02;;;;;;;35.80;23.55;;;6.80;99.90;;;;;;5021122;28;20453;-73
2023/01/17 01:59:32;;;;;;;36.22;23.25;;;6.70;99.90;;;;;;5010332;28;20057;-74
2023/01/17 02:02:09;;;;;;;38.17;23.27;;;6.80;99.90;;;;;;5010608;28;20384;-72
2023/01/17 02:04:37;;;;;;;34.75;23.20;;;6.80;99.90;;;;;;5029546;28;20044;-72
2023/01/17 02:07:11;;;;;;;34.95;22.52;;;6.80;99.90;;;;;;5017105;28;20049;-73
2023/01/17 02:09:38;;;;;;;40.85;24.02;;;6.80;99.90;;;;;;5049882;28;20037;-72
2023/01/17 02:12:08;;;;;;;37.47;24.87;;;6.80;99.90;;;;;;5039718;28;20144;-73
2023/01/17 02:14:36;;;;;;;37.38;23.88;;;6.90;99.90;;;;;;5040440;28;20061;-73
2023/01/17 02:17:14;;;;;;;34.83;23.63;;;6.90;99.90;;;;;;5026682;28;20100;-73
2023/01/17 02:20:03;;;;;;;37.58;23.45;;;6.90;99.90;;;;;;5011647;28;20041;-72
2023/01/17 02:23:13;;;;;;;35.83;22.77;;;6.80;99.90;;;;;;5015154;28;20632;-73
2023/01/17 02:26:05;;;;;;;39.88;22.98;;;6.80;99.90;;;;;;5001293;28;20084;-73
2023/01/17 02:29:11;;;;;;;36.58;23.40;;;6.80;99.90;;;;;;5019326;28;20034;-73
2023/01/17 02:32:00;;;;;;;35.85;22.48;;;6.80;99.90;;;;;;5029695;22;20057;-74
2023/01/17 02:34:41;;;;;;;41.92;24.10;;;6.80;99.90;;;;;;5035941;28;20038;-73
2023/01/17 02:37:25;;;;;;;39.92;23.77;;;6.70;99.90;;;;;;5045164;28;20037;-72
2023/01/17 02:39:58;;;;;;;38.85;23.38;;;6.70;99.90;;;;;;5021660;28;20046;-71
2023/01/17 02:42:44;;;;;;;32.78;22.55;;;6.50;99.90;;;;;;5044186;28;20454;-73
2023/01/17 02:45:19;;;;;;;36.45;24.05;;;6.60;99.90;;;;;;5045970;28;20115;-74
2023/01/17 02:47:46;;;;;;;39.70;26.40;;;6.60;99.90;;;;;;5024324;28;20034;-73
2023/01/17 02:50:22;;;;;;;44.20;26.80;;;6.60;99.90;;;;;;5033275;28;20057;-73
2023/01/17 02:53:13;;;;;;;42.72;26.63;;;6.60;99.90;;;;;;5034134;28;20092;-74
2023/01/17 02:56:12;;;;;;;44.15;25.48;;;6.60;99.90;;;;;;5041733;28;20062;-73
2023/01/17 02:58:57;;;;;;;41.38;26.55;;;6.40;99.90;;;;;;5013107;28;20437;-73
2023/01/17 03:01:43;;;;;;;36.90;23.95;;;6.60;99.90;;;;;;5044496;28;20618;-73
2023/01/17 03:04:18;;;;;;;38.88;23.40;;;6.30;99.90;;;;;;5013356;28;20046;-72
2023/01/17 03:07:19;;;;;;;40.67;25.10;;;6.50;99.90;;;;;;5014942;28;20045;-72
2023/01/17 03:09:53;;;;;;;42.00;24.80;;;6.60;99.90;;;;;;4999957;28;20045;-73
2023/01/17 03:12:20;;;;;;;39.95;25.98;;;6.70;99.90;;;;;;5014868;28;20389;-72
2023/01/17 03:14:50;;;;;;;42.47;23.65;;;6.60;99.90;;;;;;5040731;28;20443;-72
2023/01/17 03:17:18;;;;;;;35.65;23.33;;;6.50;99.90;;;;;;5020950;28;20410;-72
2023/01/17 03:19:47;;;;;;;36.97;23.13;;;6.50;99.90;;;;;;5023694;28;20037;-73
2023/01/17 03:22:16;;;;;;;36.65;22.55;;;6.30;99.90;;;;;;5018381;28;20049;-72
2023/01/17 03:24:46;;;;;;;41.60;23.63;;;6.30;99.90;;;;;;5006008;28;20052;-74
2023/01/17 03:27:14;;;;;;;34.00;22.33;;;6.30;99.90;;;;;;5026036;28;20046;-71
2023/01/17 03:29:44;;;;;;;41.58;23.33;;;6.30;99.90;;;;;;5027199;22;20050;-73
2023/01/17 03:32:11;;;;;;;36.70;21.55;;;6.40;99.90;;;;;;4996809;28;20061;-72
2023/01/17 03:34:39;;;;;;;36.50;22.30;;;6.50;99.90;;;;;;4996883;28;20077;-73
2023/01/17 03:37:08;;;;;;;38.05;23.23;;;6.40;99.90;;;;;;5009998;28;20132;-73
2023/01/17 03:39:36;;;;;;;35.53;23.05;;;6.40;99.90;;;;;;4996314;28;20056;-72
2023/01/17 03:42:04;;;;;;;36.47;21.67;;;6.40;99.90;;;;;;5025444;28;20041;-72
2023/01/17 03:44:33;;;;;;;37.88;23.30;;;6.50;99.90;;;;;;5016263;23;20053;-72
2023/01/17 03:47:00;;;;;;;31.70;21.20;;;6.50;99.90;;;;;;5022606;28;20412;-73
2023/01/17 03:49:28;;;;;;;33.45;21.17;;;6.60;99.90;;;;;;5012525;28;20038;-73
2023/01/17 03:51:58;;;;;;;30.02;20.73;;;6.60;99.90;;;;;;5032080;28;20060;-72
2023/01/17 03:54:28;;;;;;;34.60;21.45;;;6.70;99.90;;;;;;5013458;28;20050;-73
2023/01/17 03:56:55;;;;;;;34.83;21.17;;;6.80;99.90;;;;;;5012321;28;20426;-71
2023/01/17 03:59:22;;;;;;;29.65;19.95;;;6.80;99.90;;;;;;5010194;28;20049;-73
2023/01/17 04:01:53;;;;;;;35.10;22.17;;;6.90;99.90;;;;;;5011947;28;20124;-73
2023/01/17 04:04:20;;;;;;;33.15;20.67;;;6.90;99.90;;;;;;5027639;28;20063;-73
2023/01/17 04:06:48;;;;;;;33.20;21.33;;;6.80;99.90;;;;;;5011983;28;20049;-73
2023/01/17 04:09:16;;;;;;;30.75;20.33;;;6.70;99.90;;;;;;5042104;28;20485;-73
2023/01/17 04:11:49;;;;;;;33.88;21.20;;;6.60;99.90;;;;;;5011746;28;20050;-72
2023/01/17 04:14:17;;;;;;;32.78;20.42;;;6.60;99.90;;;;;;5041985;28;20049;-73
2023/01/17 04:16:47;;;;;;;34.60;21.50;;;6.70;99.90;;;;;;5003660;28;20053;-72
2023/01/17 04:19:17;;;;;;;38.03;22.08;;;6.70;99.90;;;;;;5013507;28;20107;-73
2023/01/17 04:21:51;;;;;;;32.92;21.00;;;6.70;99.90;;;;;;5019028;28;20037;-72
2023/01/17 04:24:18;;;;;;;32.28;20.58;;;6.80;99.90;;;;;;4979150;28;20046;-72
2023/01/17 04:26:47;;;;;;;32.90;21.67;;;6.80;99.90;;;;;;5004448;28;20046;-72
2023/01/17 04:29:14;;;;;;;34.42;21.70;;;6.90;99.90;;;;;;5011535;28;20536;-72
2023/01/17 04:31:41;;;;;;;35.55;20.50;;;7.00;99.90;;;;;;4995306;28;20133;-71
2023/01/17 04:34:12;;;;;;;;;;;7.00;99.90;;;;;;4995965;28;20053;-72
2023/01/17 04:36:42;;;;;;;28.10;19.77;;;7.00;99.90;;;;;;5012509;28;20316;-73
2023/01/17 04:39:12;;;;;;;28.90;19.08;;;7.00;99.90;;;;;;5011106;28;20053;-74
2023/01/17 04:41:40;;;;;;;34.95;21.13;;;6.90;99.90;;;;;;4996766;28;20042;-73
2023/01/17 04:44:14;;;;;;;31.30;21.05;;;6.90;99.90;;;;;;5014273;28;20137;-74
2023/01/17 04:46:44;;;;;;;33.00;20.75;;;6.90;99.90;;;;;;4987987;28;20042;-74
2023/01/17 04:49:13;;;;;;;31.40;21.40;;;6.90;99.90;;;;;;5002954;28;20120;-72
2023/01/17 04:51:41;;;;;;;32.13;21.42;;;7.00;99.90;;;;;;5016654;28;20034;-74
2023/01/17 04:54:09;;;;;;;32.25;20.42;;;7.00;99.90;;;;;;5019563;28;20425;-74
2023/01/17 04:56:37;;;;;;;32.65;21.65;;;7.00;99.90;;;;;;4999917;28;20042;-73
2023/01/17 04:59:09;;;;;;;29.55;20.17;;;7.00;99.90;;;;;;5031154;28;20052;-73
2023/01/17 05:01:37;;;;;;;29.00;20.40;;;6.90;99.90;;;;;;4994641;28;20132;-73
2023/01/17 05:04:06;;;;;;;33.20;20.23;;;6.80;99.90;;;;;;5024499;28;20041;-73
2023/01/17 05:06:33;;;;;;;32.22;20.05;;;6.80;99.90;;;;;;5011050;28;20049;-72
2023/01/17 05:09:22;;;;;;;31.67;22.25;;;6.80;99.90;;;;;;5010175;28;20125;-73
2023/01/17 05:12:07;;;;;;;34.35;21.10;;;6.80;99.90;;;;;;5011734;28;20053;-73
2023/01/17 05:14:53;;;;;;;33.78;20.55;;;6.70;99.90;;;;;;5002515;28;20053;-71
2023/01/17 05:17:26;;;;;;;33.47;21.23;;;6.60;99.90;;;;;;4998316;28;20445;-74
2023/01/17 05:19:53;;;;;;;36.00;21.20;;;6.60;99.90;;;;;;4996047;28;20410;-74
2023/01/17 05:22:30;;;;;;;33.88;20.02;;;6.60;99.90;;;;;;4996948;28;20049;-73
2023/01/17 05:25:01;;;;;;;33.35;21.42;;;6.60;99.90;;;;;;5013377;28;20104;-74
2023/01/17 05:27:29;;;;;;;31.83;20.17;;;6.50;99.90;;;;;;5002315;28;20057;-73
2023/01/17 05:29:58;;;;;;;31.25;20.60;;;6.50;99.90;;;;;;4998208;28;20100;-74
2023/01/17 05:32:26;;;;;;;35.83;22.20;;;6.50;99.90;;;;;;4993654;28;20486;-73
2023/01/17 05:34:54;;;;;;;35.10;21.45;;;6.50;99.90;;;;;;5007974;28;20057;-73
2023/01/17 05:37:21;;;;;;;34.03;21.85;;;6.50;99.90;;;;;;4993428;28;20048;-73
2023/01/17 05:39:49;;;;;;;32.13;20.73;;;6.50;99.90;;;;;;4993945;28;20140;-73
2023/01/17 05:42:22;;;;;;;35.08;22.65;;;6.50;99.90;;;;;;5008075;28;20034;-73
2023/01/17 05:44:49;;;;;;;35.08;21.70;;;6.70;99.90;;;;;;4994264;28;20400;-73
2023/01/17 05:47:22;;;;;;;36.43;22.77;;;6.70;99.90;;;;;;4996548;28;20070;-73
2023/01/17 05:49:51;;;;;;;36.55;21.40;;;6.70;99.90;;;;;;4998364;28;20049;-74
2023/01/17 05:52:19;;;;;;;32.10;20.77;;;6.60;99.90;;;;;;4997919;28;20066;-73
2023/01/17 05:54:46;;;;;;;34.55;21.50;;;6.50;99.90;;;;;;4992263;28;20476;-73
2023/01/17 05:57:16;;;;;;;31.75;21.13;;;6.60;99.90;;;;;;5005998;28;20053;-73
2023/01/17 05:59:44;;;;;;;;;;;6.60;99.90;;;;;;4998635;28;20099;-73
2023/01/17 06:02:12;;;;;;;27.63;18.52;;;6.60;99.90;;;;;;5025877;28;19920;-72
2023/01/17 06:04:39;;;;;;;32.42;19.13;;;6.70;99.90;;;;;;5035158;28;20041;-73
2023/01/17 06:07:12;;;;;;;76.45;41.47;;;6.70;99.90;;;;;;5001398;28;20116;-72
2023/01/17 06:09:39;;;;;;;39.85;27.05;;;6.80;99.90;;;;;;5002731;28;20048;-72
2023/01/17 06:12:15;;;;;;;36.53;22.45;;;7.20;99.90;;;;;;5004370;28;20042;-71
2023/01/17 06:14:50;;;;;;;34.85;22.30;;;6.70;99.90;;;;;;4991573;28;20051;-72
2023/01/17 06:17:25;;;;;;;34.67;22.17;;;6.40;99.90;;;;;;4990742;28;20393;-73
2023/01/17 06:20:00;;;;;;;37.60;23.70;;;6.50;99.90;;;;;;5002835;28;20050;-72
2023/01/17 06:22:35;;;;;;;37.95;23.17;;;6.50;99.90;;;;;;4999132;28;20049;-74
2023/01/17 06:25:08;;;;;;;35.60;22.98;;;6.40;99.90;;;;;;5013924;28;20048;-73
2023/01/17 06:27:38;;;;;;;33.97;22.73;;;6.30;99.90;;;;;;4998905;28;20065;-71
2023/01/17 06:30:08;;;;;;;36.60;22.77;;;6.20;99.90;;;;;;4997637;28;20049;-71
2023/01/17 06:32:46;;;;;;;34.65;22.42;;;6.40;99.90;;;;;;4992854;28;20456;-71
2023/01/17 06:35:16;;;;;;;32.05;20.80;;;6.30;99.90;;;;;;4998060;28;20037;-72
2023/01/17 06:37:44;;;;;;;34.85;21.65;;;6.50;99.90;;;;;;5013038;28;20050;-70
2023/01/17 06:40:13;;;;;;;48.53;29.30;;;6.70;99.90;;;;;;4997288;28;20044;-70
2023/01/17 06:42:42;;;;;;;47.60;27.45;;;6.70;99.90;;;;;;4977350;28;20070;-74
2023/01/17 06:45:11;;;;;;;29.33;19.85;;;6.80;99.90;;;;;;5013260;28;20030;-72
2023/01/17 06:47:44;;;;;;;28.65;19.38;;;6.80;99.90;;;;;;5006907;23;20037;-72
2023/01/17 06:50:17;;;;;;;30.23;19.90;;;6.70;99.90;;;;;;5015038;28;20057;-72
2023/01/17 06:53:02;;;;;;;28.88;19.35;;;6.80;99.90;;;;;;5012618;28;20053;-73
2023/01/17 06:55:38;;;;;;;29.55;18.70;;;6.80;99.90;;;;;;5032280;28;20465;-72
2023/01/17 06:58:07;;;;;;;27.58;19.35;;;6.80;99.90;;;;;;5009568;28;20494;-72
2023/01/17 07:00:35;;;;;;;27.73;20.50;;;6.70;99.90;;;;;;5006878;28;20095;-72
2023/01/17 07:03:18;;;;;;;30.83;19.80;;;6.90;99.90;;;;;;5032391;28;20037;-71
2023/01/17 07:05:46;;;;;;;33.20;19.77;;;7.00;99.90;;;;;;5032155;28;20389;-72
2023/01/17 07:08:15;;;;;;;35.33;21.70;;;6.90;99.90;;;;;;5032571;28;20132;-72
2023/01/17 07:10:47;;;;;;;34.28;21.80;;;6.90;99.90;;;;;;5014089;28;20056;-72
2023/01/17 07:13:19;;;;;;;36.03;23.42;;;6.90;99.90;;;;;;5013082;28;20049;-72
2023/01/17 07:15:47;;;;;;;33.55;22.33;;;7.10;99.90;;;;;;5024428;28;20046;-72
2023/01/17 07:18:19;;;;;;;32.35;21.73;;;7.10;99.90;;;;;;5012853;28;20105;-71
2023/01/17 07:20:46;;;;;;;35.47;20.50;;;7.30;99.90;;;;;;4996029;28;20049;-71
2023/01/17 07:23:15;;;;;;;30.65;19.85;;;7.30;99.90;;;;;;4996771;28;20046;-72
2023/01/17 07:25:43;;;;;;;31.35;20.67;;;7.40;99.90;;;;;;5012173;28;20401;-71
2023/01/17 07:28:10;;;;;;;33.35;22.27;;;7.50;99.90;;;;;;5012031;28;20127;-71
2023/01/17 07:30:40;;;;;;;30.13;20.17;;;7.70;99.90;;;;;;4996215;28;20049;-72
2023/01/17 07:33:34;;;;;;;31.70;20.60;;;7.80;99.90;;;;;;5012368;28;20049;-74
2023/01/17 07:36:08;;;;;;;27.30;19.98;;;7.60;99.90;;;;;;5012412;28;20037;-71
2023/01/17 07:38:45;;;;;;;31.75;21.83;;;7.90;99.90;;;;;;5011680;28;20100;-71
2023/01/17 07:41:12;;;;;;;33.88;21.55;;;8.00;99.90;;;;;;4996342;28;20077;-70
2023/01/17 07:43:40;;;;;;;34.88;21.80;;;7.90;99.90;;;;;;5012308;28;20366;-71
2023/01/17 07:46:08;;;;;;;29.15;21.17;;;8.00;99.90;;;;;;5012138;28;20117;-72
2023/01/17 07:48:38;;;;;;;35.78;23.52;;;8.10;99.90;;;;;;4984049;28;20129;-72
2023/01/17 07:51:12;;;;;;;36.08;23.02;;;8.20;99.90;;;;;;4996435;28;20431;-72
2023/01/17 07:53:39;;;;;;;35.35;22.98;;;7.80;99.90;;;;;;4996126;28;20398;-71
2023/01/17 07:56:12;;;;;;;37.30;23.40;;;7.80;99.90;;;;;;4994209;28;20058;-71
2023/01/17 07:58:40;;;;;;;34.67;21.10;;;7.80;99.90;;;;;;5012059;28;20065;-72
2023/01/17 08:01:10;;;;;;;35.42;22.70;;;7.80;99.90;;;;;;5011506;28;20073;-72
2023/01/17 08:03:41;;;;;;;33.83;22.77;;;7.90;99.90;;;;;;5011746;28;20386;-72
2023/01/17 08:06:23;;;;;;;36.90;22.85;;;8.10;99.90;;;;;;4996061;28;20050;-74
2023/01/17 08:08:57;;;;;;;36.97;22.67;;;8.30;99.90;;;;;;4995659;28;20060;-72
2023/01/17 08:11:27;;;;;;;39.05;23.88;;;8.40;99.90;;;;;;4996113;28;20042;-73
2023/01/17 08:13:58;;;;;;;37.40;23.38;;;8.50;99.90;;;;;;5011269;28;20055;-72
2023/01/17 08:16:27;;;;;;;37.55;23.58;;;8.60;99.90;;;;;;5012568;28;20490;-72
2023/01/17 08:18:55;;;;;;;37.35;24.13;;;8.50;99.90;;;;;;5011245;28;20037;-72
2023/01/17 08:21:26;;;;;;;34.70;23.02;;;8.50;99.90;;;;;;5011488;28;20048;-72
2023/01/17 08:23:54;;;;;;;39.13;23.38;;;8.60;99.90;;;;;;4995422;28;20413;-71
2023/01/17 08:26:22;;;;;;;39.10;23.25;;;8.50;99.90;;;;;;5011503;28;20116;-73
2023/01/17 08:28:59;;;;;;;32.45;22.73;;;8.60;99.90;;;;;;5011642;28;20516;-72
2023/01/17 08:31:29;;;;;;;32.60;24.10;;;8.70;99.90;;;;;;4995151;28;20065;-71
2023/01/17 08:33:57;;;;;;;35.50;22.90;;;8.60;99.90;;;;;;5011821;28;20046;-72
2023/01/17 08:36:25;;;;;;;35.35;22.85;;;8.60;99.90;;;;;;5011171;28;20464;-71
2023/01/17 08:38:54;;;;;;;41.00;23.58;;;8.70;99.90;;;;;;5004983;28;20049;-72
2023/01/17 08:41:28;;;;;;;38.53;21.88;;;8.70;99.90;;;;;;5004287;28;20104;-72
2023/01/17 08:43:58;;;;;;;33.08;21.58;;;8.60;99.90;;;;;;4995467;28;20053;-71
2023/01/17 08:46:26;;;;;;;34.92;21.73;;;8.70;99.90;;;;;;5010606;28;20045;-71
2023/01/17 08:48:57;;;;;;;33.30;22.83;;;8.80;99.90;;;;;;5001663;28;20096;-72
2023/01/17 08:51:26;;;;;;;34.08;23.60;;;8.70;99.90;;;;;;4994730;28;20441;-70
2023/01/17 08:53:57;;;;;;;36.17;22.50;;;8.80;99.90;;;;;;5011819;28;20472;-70
2023/01/17 08:56:25;;;;;;;33.90;23.33;;;8.80;99.90;;;;;;5011701;28;20398;-70
2023/01/17 08:58:55;;;;;;;36.83;22.85;;;9.00;99.90;;;;;;5010596;28;20038;-72
2023/01/17 09:01:22;;;;;;;35.33;24.30;;;9.20;99.90;;;;;;4994881;28;20045;-72
2023/01/17 09:03:52;;;;;;;30.52;23.10;;;9.40;99.90;;;;;;5010850;28;20299;-72
2023/01/17 09:06:23;;;;;;;35.88;22.17;;;9.50;99.90;;;;;;4994965;28;20145;-72
2023/01/17 09:08:51;;;;;;;34.33;21.00;;;9.60;99.90;;;;;;5011617;28;20117;-72
2023/01/17 09:11:18;;;;;;;32.53;22.02;;;9.50;99.90;;;;;;5011902;28;20065;-72
2023/01/17 09:13:47;;;;;;;32.95;21.25;;;9.70;99.90;;;;;;4993447;28;20064;-72
2023/01/17 09:16:16;;;;;;;30.48;21.30;;;9.80;99.90;;;;;;4974996;28;20149;-71
2023/01/17 09:18:43;;;;;;;31.55;20.33;;;9.90;99.90;;;;;;5006294;28;20042;-72
2023/01/17 09:21:20;;;;;;;30.67;20.60;;;9.90;99.90;;;;;;4994005;28;20402;-72
2023/01/17 09:23:48;;;;;;;31.90;21.92;;;10.00;99.90;;;;;;4994172;28;20082;-72
2023/01/17 09:26:25;;;;;;;32.65;21.98;;;10.40;99.90;;;;;;5010819;28;20548;-73
2023/01/17 09:28:58;;;;;;;31.60;21.95;;;10.70;99.90;;;;;;4994940;28;20064;-72
2023/01/17 09:31:36;;;;;;;28.83;20.23;;;10.80;99.90;;;;;;4995034;28;20108;-72
2023/01/17 09:34:08;;;;;;;31.42;20.77;;;11.10;99.90;;;;;;4994120;28;20060;-73
2023/01/17 09:36:36;;;;;;;;;;;11.00;99.90;;;;;;4994533;28;20046;-73
2023/01/17 09:39:04;;;;;;;29.45;19.67;;;11.30;99.90;;;;;;5011052;28;19928;-71
2023/01/17 09:41:43;;;;;;;28.85;18.67;;;11.70;99.90;;;;;;5010384;28;20046;-73
2023/01/17 09:44:40;;;;;;;21.90;16.40;;;11.90;99.90;;;;;;4991823;28;20046;-72
2023/01/17 09:47:19;;;;;;;26.70;17.55;;;11.90;99.90;;;;;;4980550;28;20502;-72
2023/01/17 09:49:46;;;;;;;24.67;15.77;;;11.80;99.90;;;;;;5011279;28;20070;-72
2023/01/17 09:52:23;;;;;;;27.88;16.75;;;11.70;99.90;;;;;;5011370;28;20049;-72
2023/01/17 09:54:53;;;;;;;25.65;15.80;;;11.70;99.90;;;;;;4994436;28;20133;-71
2023/01/17 09:57:37;;;;;;;23.75;16.58;;;11.70;99.90;;;;;;5011051;28;20045;-72
2023/01/17 10:00:29;;;;;;;25.48;17.38;;;11.60;99.90;;;;;;4993412;28;20050;-71
2023/01/17 10:03:34;;;;;;;25.48;16.00;;;11.60;99.90;;;;;;5010106;28;20052;-72
2023/01/17 10:06:26;;;;;;;31.35;17.33;;;11.50;99.90;;;;;;4993759;28;20082;-72
2023/01/17 10:09:24;;;;;;;26.92;18.60;;;11.40;99.90;;;;;;5009907;28;20474;-71
2023/01/17 10:11:54;;;;;;;30.08;17.23;;;11.30;99.90;;;;;;5001605;28;20048;-71
2023/01/17 10:14:25;;;;;;;;;;;11.30;99.90;;;;;;4993590;28;20050;-72
2023/01/17 10:17:30;;;;;;;25.58;17.08;;;11.30;99.90;;;;;;4993927;28;20265;-71
2023/01/17 10:20:19;;;;;;;23.50;16.90;;;11.30;99.90;;;;;;4985599;28;20556;-73
2023/01/17 10:23:32;;;;;;;29.77;17.00;;;11.20;99.90;;;;;;4994093;28;20225;-72
2023/01/17 10:26:14;;;;;;;28.20;18.20;;;11.30;99.90;;;;;;4994530;28;20386;-71
2023/01/17 10:28:54;;;;;;;31.52;18.58;;;11.20;99.90;;;;;;4993230;28;20046;-72
2023/01/17 10:32:01;;;;;;;28.30;17.20;;;11.20;99.90;;;;;;4995546;28;20054;-73
2023/01/17 10:34:54;;;;;;;25.95;18.17;;;11.10;99.90;;;;;;4997802;28;20069;-72
2023/01/17 10:37:42;;;;;;;28.25;17.83;;;11.10;99.90;;;;;;4997124;28;20057;-73
2023/01/17 10:40:44;;;;;;;31.20;18.00;;;11.10;99.90;;;;;;4997908;28;20052;-73
2023/01/17 10:43:21;;;;;;;28.75;17.42;;;11.20;99.90;;;;;;5013046;28;20041;-72
2023/01/17 10:45:53;;;;;;;26.45;17.83;;;11.20;99.90;;;;;;5013189;28;20046;-71
2023/01/17 10:48:44;;;;;;;29.63;18.33;;;11.10;99.90;;;;;;5009242;28;20077;-73
2023/01/17 10:51:18;;;;;;;;;;;11.20;99.90;;;;;;4997326;28;20106;-72
2023/01/17 10:54:30;;;;;;;28.13;16.63;;;11.10;99.90;;;;;;5038231;22;19971;-72
2023/01/17 10:56:58;;;;;;;26.63;17.35;;;11.20;99.90;;;;;;5034132;28;20072;-70
2023/01/17 10:59:34;;;;;;;30.10;18.13;;;11.40;99.90;;;;;;5032628;28;20397;-72
2023/01/17 11:02:08;;;;;;;26.65;18.00;;;11.30;99.90;;;;;;5032908;28;20343;-71
2023/01/17 11:04:41;;;;;;;26.90;17.17;;;11.40;99.90;;;;;;5012316;28;20119;-72
2023/01/17 11:07:17;;;;;;;23.08;16.40;;;11.40;99.90;;;;;;5025586;28;20048;-72
2023/01/17 11:09:48;;;;;;;21.13;15.10;;;11.40;99.90;;;;;;5032740;28;20049;-74
2023/01/17 11:12:20;;;;;;;24.33;15.90;;;11.50;99.90;;;;;;5031821;28;20053;-72
2023/01/17 11:15:00;;;;;;;23.58;15.90;;;11.60;99.90;;;;;;5033008;28;20049;-73
2023/01/17 11:17:32;;;;;;;23.58;15.75;;;11.80;99.90;;;;;;5012881;28;20585;-73
2023/01/17 11:20:18;;;;;;;23.05;16.27;;;12.00;99.90;;;;;;4996628;28;20149;-71
2023/01/17 11:23:02;;;;;;;24.55;15.65;;;12.00;99.90;;;;;;4980958;28;20149;-73
2023/01/17 11:25:32;;;;;;;25.00;15.68;;;11.90;99.90;;;;;;5009926;28;20042;-72
2023/01/17 11:28:07;;;;;;;22.70;15.43;;;11.80;99.90;;;;;;5002413;28;20415;-73
2023/01/17 11:30:35;;;;;;;25.05;16.52;;;11.80;99.90;;;;;;5011844;28;20425;-73
2023/01/17 11:33:07;;;;;;;23.52;15.55;;;11.90;99.90;;;;;;5012462;28;20128;-74
2023/01/17 11:35:39;;;;;;;20.20;14.98;;;11.90;99.90;;;;;;5012483;28;20100;-74
2023/01/17 11:38:18;;;;;;;24.77;15.10;;;11.80;99.90;;;;;;5013915;28;20089;-73
2023/01/17 11:40:49;;;;;;;22.77;16.05;;;11.80;99.90;;;;;;5013404;28;20034;-74
2023/01/17 11:43:20;;;;;;;22.05;14.52;;;11.70;99.90;;;;;;5012499;28;20145;-74
2023/01/17 11:46:17;;;;;;;21.98;15.23;;;11.70;99.90;;;;;;5013529;28;20073;-73
2023/01/17 11:48:53;;;;;;;23.08;15.23;;;11.80;99.90;;;;;;5009948;28;20118;-74
2023/01/17 11:51:31;;;;;;;22.67;14.15;;;11.90;99.90;;;;;;5013080;28;20394;-71
2023/01/17 11:54:24;;;;;;;20.10;13.93;;;11.90;99.90;;;;;;5013007;28;20375;-72
2023/01/17 11:57:01;;;;;;;20.15;12.88;;;11.80;99.90;;;;;;5000794;28;20045;-70
2023/01/17 11:59:36;;;;;;;19.45;14.05;;;11.80;99.90;;;;;;5011331;28;20460;-72
2023/01/17 12:02:16;;;;;;;17.25;12.52;;;11.80;99.90;;;;;;5013066;28;20042;-72
2023/01/17 12:05:05;;;;;;;18.77;12.75;;;11.60;99.90;;;;;;5012646;28;20030;-72
2023/01/17 12:07:50;;;;;;;20.02;12.98;;;11.60;99.90;;;;;;5012760;28;20418;-72
2023/01/17 12:10:21;;;;;;;17.35;11.43;;;11.60;99.90;;;;;;5013049;28;20061;-72
2023/01/17 12:15:50;;;;;;;18.63;11.10;;;11.80;99.90;;;;;;5012291;28;20125;-72
2023/01/17 12:18:24;;;;;;;16.95;10.25;;;11.90;99.90;;;;;;5012585;28;20057;-73
2023/01/17 12:21:15;;;;;;;15.48;10.18;;;11.90;99.90;;;;;;5011260;28;20049;-73
2023/01/17 12:24:19;;;;;;;20.05;12.35;;;11.90;99.90;;;;;;5037122;22;20103;-73
2023/01/17 12:26:57;;;;;;;24.15;13.23;;;12.00;99.90;;;;;;5017729;28;20038;-73
2023/01/17 12:29:43;;;;;;;20.58;12.20;;;12.20;99.90;;;;;;5031513;28;20080;-72
2023/01/17 12:32:24;;;;;;;30.27;18.98;;;12.30;99.90;;;;;;5030809;28;20417;-73
2023/01/17 12:35:06;;;;;;;37.60;22.27;;;12.20;99.90;;;;;;5030958;28;20046;-71
2023/01/17 12:37:40;;;;;;;36.40;22.85;;;11.80;99.90;;;;;;5032998;28;20069;-74
2023/01/17 12:40:16;;;;;;;33.85;23.25;;;11.60;99.90;;;;;;5028630;28;20508;-71
2023/01/17 12:42:51;;;;;;;35.30;24.45;;;11.60;99.90;;;;;;5031746;28;20055;-74
2023/01/17 12:45:32;;;;;;;33.22;22.10;;;11.30;99.90;;;;;;5032022;28;20095;-73
2023/01/17 12:48:11;;;;;;;34.92;20.70;;;11.40;99.90;;;;;;5031615;28;20052;-72
2023/01/17 12:51:02;;;;;;;34.00;20.60;;;11.40;99.90;;;;;;5032195;28;20033;-74
2023/01/17 12:53:56;;;;;;;36.67;21.33;;;11.50;99.90;;;;;;5012513;28;20080;-73
2023/01/17 12:56:44;;;;;;;33.83;21.85;;;11.30;99.90;;;;;;5031452;28;20029;-73
2023/01/17 12:59:37;;;;;;;27.13;19.65;;;11.30;99.90;;;;;;5032333;28;20394;-73
2023/01/17 13:02:24;;;;;;;33.90;21.65;;;11.40;99.90;;;;;;5021725;28;20176;-73
2023/01/17 13:05:07;;;;;;;35.00;20.58;;;11.30;99.90;;;;;;5023612;28;20049;-75
2023/01/17 13:08:01;;;;;;;34.25;19.90;;;11.40;99.90;;;;;;5025865;28;20118;-73
2023/01/17 13:10:59;;;;;;;35.20;20.63;;;11.50;99.90;;;;;;5031807;28;20124;-73
2023/01/17 13:13:28;;;;;;;46.47;26.20;;;11.50;99.90;;;;;;5021110;28;20072;-72
2023/01/17 13:16:12;;;;;;;36.92;23.63;;;11.50;99.90;;;;;;5024419;28;20054;-73
2023/01/17 13:18:45;;;;;;;32.55;22.77;;;11.50;99.90;;;;;;5011704;28;20045;-74
2023/01/17 13:21:28;;;;;;;34.38;21.95;;;11.40;99.90;;;;;;5018445;28;20469;-74
2023/01/17 13:24:00;;;;;;;32.53;21.50;;;11.30;99.90;;;;;;5014026;28;20104;-74
2023/01/17 13:26:54;;;;;;;42.03;26.00;;;11.30;99.90;;;;;;5011622;28;20042;-71
2023/01/17 13:29:40;;;;;;;37.88;24.35;;;11.40;99.90;;;;;;4981451;28;20534;-73
2023/01/17 13:32:53;;;;;;;109.28;50.20;;;11.50;99.90;;;;;;5010296;28;20042;-73
2023/01/17 13:35:40;;;;;;;118.60;63.60;;;11.40;99.90;;;;;;5011442;28;20037;-72
2023/01/17 13:38:29;;;;;;;61.38;35.45;;;11.40;99.90;;;;;;5010339;28;20072;-72
2023/01/17 13:41:24;;;;;;;33.80;24.20;;;11.50;99.90;;;;;;5009997;28;20141;-73
2023/01/17 13:46:59;;;;;;;39.58;22.58;;;11.20;99.90;;;;;;5011537;28;20429;-73
2023/01/17 13:49:35;;;;;;;39.63;23.38;;;11.20;99.90;;;;;;4999504;28;20061;-73
2023/01/17 13:52:10;;;;;;;31.17;19.00;;;11.20;99.90;;;;;;4999183;28;20042;-72
2023/01/17 13:54:46;;;;;;;33.58;20.75;;;11.20;99.90;;;;;;4993833;28;20512;-73
2023/01/17 13:57:27;;;;;;;41.58;20.73;;;11.10;99.90;;;;;;5010672;28;20089;-74
2023/01/17 13:59:57;;;;;;;30.75;20.13;;;11.10;99.90;;;;;;5024108;28;20100;-73
2023/01/17 14:02:30;;;;;;;35.70;20.15;;;11.10;99.90;;;;;;5010494;28;20393;-73
2023/01/17 14:05:13;;;;;;;35.15;21.33;;;11.20;99.90;;;;;;4998024;28;20459;-73
2023/01/17 14:07:56;;;;;;;33.78;20.25;;;11.10;99.90;;;;;;5013394;28;20042;-73
2023/01/17 14:10:23;;;;;;;33.42;21.58;;;11.10;99.90;;;;;;5015302;28;20454;-74
2023/01/17 14:12:51;;;;;;;35.42;21.40;;;11.20;99.90;;;;;;5015174;28;20140;-73
2023/01/17 14:15:25;;;;;;;28.47;20.67;;;11.30;99.90;;;;;;5015235;28;20045;-74
2023/01/17 14:18:02;;;;;;;30.92;21.35;;;11.30;99.90;;;;;;5014163;28;20046;-72
2023/01/17 14:20:42;;;;;;;28.35;20.13;;;11.30;99.90;;;;;;5013446;28;20124;-72
2023/01/17 14:23:27;;;;;;;33.25;21.63;;;11.30;99.90;;;;;;5013851;28;20074;-75
2023/01/17 14:25:58;;;;;;;31.10;21.13;;;11.30;99.90;;;;;;5013698;28;20517;-74
2023/01/17 14:28:25;;;;;;;32.50;21.23;;;11.10;99.90;;;;;;5014670;28;20041;-72
2023/01/17 14:30:55;;;;;;;36.97;22.25;;;11.10;99.90;;;;;;5014699;28;20417;-74
2023/01/17 14:33:29;;;;;;;34.47;22.17;;;11.10;99.90;;;;;;5014667;28;20363;-73
2023/01/17 14:36:00;;;;;;;37.20;22.83;;;11.00;99.90;;;;;;5015046;28;20057;-74
2023/01/17 14:38:31;;;;;;;31.23;21.25;;;11.00;99.90;;;;;;5014575;28;20042;-73
2023/01/17 14:41:08;;;;;;;33.83;22.52;;;11.00;99.90;;;;;;5038579;22;20084;-73
2023/01/17 14:43:40;;;;;;;32.55;20.05;;;11.00;99.90;;;;;;5013776;28;20127;-73